Salitral, Costa Rica

4:12 PM CST on July 07, 2015 (GMT -0600)
Pozos de Santa Ana | | Change Station
CLOSE
Current Station
Personal Weather Station
Location: San Jos, SAN JOS
Elevation: 2825 ft
Nearby Weather Stations

Elev 2825 ft 9.96 °N, 84.19 °W | Updated 33 seconds ago

Mostly Cloudy
Mostly Cloudy
77.7 °F
Feels Like 80 °F
N
1.3
Wind Variable Wind from SE
Gusts 2.5 mph

Today
High -- | Low -- °F
--% Chance of Precip.
Yesterday
High -- | Low -- °F
Precip. -- in
5:21 AM 6:02 PM
Waning Gibbous, 61% visible
Pressure 29.97 in
Visibility 6.2 miles
Clouds Few 3500 ft
Mostly Cloudy 10000 ft
Heat Index 80 °F
Dew Point 71 °F
Humidity 81%
Rainfall 0.09 in
Snow Depth Not available.
UV 0.0 out of 12
Pollen Not available.
Air Quality Not available.
Flu Activity Not available.
METAR MRPV 072200Z 10009KT 9999 FEW035 BKN100 25/17 A2997 BECMG RA

More Conditions Fewer Conditions

Pressure 29.97 in
Visibility 6.2 miles
Clouds Few 3500 ft
Mostly Cloudy 10000 ft
Heat Index 80 °F
Dew Point 71 °F
Humidity 81%
Rainfall 0.09 in
Snow Depth Not available.
UV 0.0 out of 12
Pollen Not available.
Air Quality Not available.
Flu Activity Not available.
METAR MRPV 072200Z 10009KT 9999 FEW035 BKN100 25/17 A2997 BECMG RA

More Conditions Fewer Conditions

10-Day Weather Forecast

×

Almanac

Astronomy

Jul. 07, 2015 Rise Set
Actual Time
Civil Twilight
Nautical Twilight
Astronomical Twilight
Moon
Length of Visible Light
Length of Day
Tomorrow will be .
, % of the Moon is Illuminated

Today's Extremes

Country Highs Country Lows

Community

WunderPhotos

Upload Photos

1,835,939 photos uploaded!

WunderBlogs® & News

Nearby

Air Quality

  Air Quality AQ Index Pollutant
Not available.

Snow Depth

Station Depth Elevation

Earthquake Activity

City Distance Mag. Time & Date
Minimum magnitude displayed is 2.5.

Coastal Water Temperatures

Place Temperature

Stations

Nearby Weather Stations

Station Location Temp. Windchill Dew Point Humidity Wind Precip. Elev Updated Type